Time;durP1;ratioP1;P1;durP2;ratioP2;P2;SDS_P1;SDS_P2;PMS_P1;PMS_P2;Temp;Humidity;BMP_temperature;BMP_pressure;BME280_temperature;BME280_humidity;BME280_pressure;Samples;Min_cycle;Max_cycle;Signal;HPM_P1;HPM_P2
2022/10/08 00:00:41;;;;;;;;;;;;;;;;;;5037867;28;19928;-76
2022/10/08 00:03:07;;;;;;;;;;;;;;;;;;5025530;28;19972;-75
2022/10/08 00:05:34;;;;;;;;;;;;;;;;;;5022156;28;20016;-75
2022/10/08 00:08:00;;;;;;;;;;;;;;;;;;5018772;28;19967;-75
2022/10/08 00:10:27;;;;;;;;;;;;;;;;;;5018341;28;19965;-74
2022/10/08 00:12:53;;;;;;;;;;;;;;;;;;5017919;28;19933;-77
2022/10/08 00:15:19;;;;;;;;;;;;;;;;;;5018254;28;20016;-76
2022/10/08 00:17:47;;;;;;;;;;;;;;;;;;5016904;28;19926;-75
2022/10/08 00:20:14;;;;;;;;;;;;;;;;;;5016997;28;19960;-76
2022/10/08 00:22:40;;;;;;;;;;;;;;;;;;5016772;28;19925;-76
2022/10/08 00:25:07;;;;;;;;;;;;;;;;;;5016432;28;19975;-74
2022/10/08 00:27:33;;;;;;;;;;;;;;;;;;5016600;28;20388;-75
2022/10/08 00:30:00;;;;;;;;;;;;;;;;;;5016091;28;20016;-76
2022/10/08 00:32:26;;;;;;;;;;;;;;;;;;5016046;28;19925;-75
2022/10/08 00:34:54;;;;;;;;;;;;;;;;;;5016334;28;19936;-76
2022/10/08 00:37:21;;;;;;;;;;;;;;;;;;5015936;28;19925;-74
2022/10/08 00:39:47;;;;;;;;;;;;;;;;;;5017794;28;20376;-74
2022/10/08 00:42:15;;;;;;;;;;;;;;;;;;5017395;28;20479;-75
2022/10/08 00:44:50;;;;;;;;;;;;;;;;;;5017453;28;19932;-75
2022/10/08 00:47:20;;;;;;;;;;;;;;;;;;5016374;28;19926;-76
2022/10/08 00:49:48;;;;;;;;;;;;;;;;;;5017424;28;19929;-75
2022/10/08 00:52:16;;;;;;;;;;;;;;;;;;5018926;28;19933;-75
2022/10/08 00:54:43;;;;;;;;;;;;;;;;;;5035913;28;20015;-75
2022/10/08 00:57:09;;;;;;;;;;;;;;;;;;5034789;28;19929;-77
2022/10/08 00:59:37;;;;;;;;;;;;;;;;;;5035129;28;19976;-75
2022/10/08 01:02:03;;;;;;;;;;;;;;;;;;5035130;28;19925;-74
2022/10/08 01:04:30;;;;;;;;;;;;;;;;;;5034641;28;20107;-75
2022/10/08 01:06:58;;;;;;;;;;;;;;;;;;5034236;28;20360;-76
2022/10/08 01:09:29;;;;;;;;;;;;;;;;;;5034374;28;20395;-76
2022/10/08 01:12:00;;;;;;;;;;;;;;;;;;5034420;28;20024;-75
2022/10/08 01:14:33;;;;;;;;;;;;;;;;;;5034187;28;19968;-75
2022/10/08 01:17:04;;;;;;;;;;;;;;;;;;5033769;28;19929;-74
2022/10/08 01:19:39;;;;;;;;;;;;;;;;;;5034192;28;20331;-76
2022/10/08 01:22:09;;;;;;;;;;;;;;;;;;5034010;28;19925;-75
2022/10/08 01:27:31;;;;;;;;;;;;;;;;;;5033615;28;19932;-74
2022/10/08 01:30:01;;;;;;;;;;;;;;;;;;5034217;28;19931;-74
2022/10/08 01:32:30;;;;;;;;;;;;;;;;;;5034011;28;19975;-75
2022/10/08 01:35:00;;;;;;;;;;;;;;;;;;5033927;28;20015;-76
2022/10/08 01:37:30;;;;;;;;;;;;;;;;;;5033513;28;20020;-75
2022/10/08 01:39:58;;;;;;;;;;;;;;;;;;5033919;28;19937;-76
2022/10/08 01:42:26;;;;;;;;;;;;;;;;;;5033465;28;20302;-76
2022/10/08 01:44:57;;;;;;;;;;;;;;;;;;5033529;28;19979;-76
2022/10/08 01:47:25;;;;;;;;;;;;;;;;;;5032567;28;19925;-75
2022/10/08 01:49:53;;;;;;;;;;;;;;;;;;5033449;28;19925;-76
2022/10/08 01:52:23;;;;;;;;;;;;;;;;;;5033458;28;19972;-75
2022/10/08 01:54:52;;;;;;;;;;;;;;;;;;5033825;28;19929;-75
2022/10/08 01:57:19;;;;;;;;;;;;;;;;;;5032861;28;19925;-75
2022/10/08 01:59:47;;;;;;;;;;;;;;;;;;5033554;28;19969;-76
2022/10/08 02:02:17;;;;;;;;;;;;;;;;;;5028955;28;19925;-76
2022/10/08 02:04:43;;;;;;;;;;;;;;;;;;5013703;28;19930;-76
2022/10/08 02:07:11;;;;;;;;;;;;;;;;;;5013326;28;20047;-75
2022/10/08 02:09:38;;;;;;;;;;;;;;;;;;5013324;28;19932;-77
2022/10/08 02:12:05;;;;;;;;;;;;;;;;;;5013572;28;19932;-75
2022/10/08 02:14:32;;;;;;;;;;;;;;;;;;5013541;28;19925;-75
2022/10/08 02:17:03;;;;;;;;;;;;;;;;;;5012980;28;20020;-77
2022/10/08 02:19:35;;;;;;;;;;;;;;;;;;5013206;28;20012;-77
2022/10/08 02:22:03;;;;;;;;;;;;;;;;;;5013290;28;19925;-76
2022/10/08 02:24:33;;;;;;;;;;;;;;;;;;5014912;28;19930;-75
2022/10/08 02:27:02;;;;;;;;;;;;;;;;;;5012588;28;20400;-76
2022/10/08 02:29:32;;;;;;;;;;;;;;;;;;5012957;28;19980;-76
2022/10/08 02:32:01;;;;;;;;;;;;;;;;;;5013062;28;19945;-77
2022/10/08 02:34:30;;;;;;;;;;;;;;;;;;5012799;28;20008;-75
2022/10/08 02:37:00;;;;;;;;;;;;;;;;;;5012604;28;19973;-75
2022/10/08 02:39:29;;;;;;;;;;;;;;;;;;5012990;28;20392;-74
2022/10/08 02:41:57;;;;;;;;;;;;;;;;;;5012861;28;20005;-75
2022/10/08 02:44:26;;;;;;;;;;;;;;;;;;5012601;28;19926;-76
2022/10/08 02:46:54;;;;;;;;;;;;;;;;;;5012270;28;20021;-75
2022/10/08 02:49:23;;;;;;;;;;;;;;;;;;5012912;28;19930;-75
2022/10/08 02:51:51;;;;;;;;;;;;;;;;;;5012743;28;19926;-75
2022/10/08 02:54:20;;;;;;;;;;;;;;;;;;5012731;28;19968;-74
2022/10/08 02:56:49;;;;;;;;;;;;;;;;;;5012314;28;19932;-75
2022/10/08 02:59:16;;;;;;;;;;;;;;;;;;5012691;28;19973;-76
2022/10/08 03:01:45;;;;;;;;;;;;;;;;;;5013117;28;19933;-75
2022/10/08 03:04:16;;;;;;;;;;;;;;;;;;5032093;28;19929;-75
2022/10/08 03:06:43;;;;;;;;;;;;;;;;;;5032222;28;19926;-76
2022/10/08 03:09:11;;;;;;;;;;;;;;;;;;5032456;28;20020;-76
2022/10/08 03:11:39;;;;;;;;;;;;;;;;;;5032658;28;20012;-75
2022/10/08 03:14:09;;;;;;;;;;;;;;;;;;5031997;28;19996;-74
2022/10/08 03:16:37;;;;;;;;;;;;;;;;;;5031940;28;19925;-76
2022/10/08 03:19:04;;;;;;;;;;;;;;;;;;5031804;28;20015;-75
2022/10/08 03:21:30;;;;;;;;;;;;;;;;;;5032156;28;19932;-76
2022/10/08 03:23:57;;;;;;;;;;;;;;;;;;5031870;28;20019;-76
2022/10/08 03:26:23;;;;;;;;;;;;;;;;;;5031519;28;20418;-76
2022/10/08 03:28:53;;;;;;;;;;;;;;;;;;5031737;28;19931;-75
2022/10/08 03:31:20;;;;;;;;;;;;;;;;;;5032121;28;20380;-76
2022/10/08 03:33:49;;;;;;;;;;;;;;;;;;5031954;28;20011;-76
2022/10/08 03:36:15;;;;;;;;;;;;;;;;;;5031961;28;19977;-76
2022/10/08 03:38:42;;;;;;;;;;;;;;;;;;5031937;28;20024;-76
2022/10/08 03:41:08;;;;;;;;;;;;;;;;;;5032323;28;19964;-75
2022/10/08 03:43:35;;;;;;;;;;;;;;;;;;5032351;28;19932;-75
2022/10/08 03:46:03;;;;;;;;;;;;;;;;;;5037626;22;19933;-76
2022/10/08 03:48:30;;;;;;;;;;;;;;;;;;5011232;28;19925;-77
2022/10/08 03:50:57;;;;;;;;;;;;;;;;;;5012131;28;19931;-76
2022/10/08 03:53:24;;;;;;;;;;;;;;;;;;5011815;28;20406;-76
2022/10/08 03:55:51;;;;;;;;;;;;;;;;;;5011847;28;19983;-74
2022/10/08 03:58:18;;;;;;;;;;;;;;;;;;5011876;28;20295;-77
2022/10/08 04:00:44;;;;;;;;;;;;;;;;;;5012357;28;19930;-76
2022/10/08 04:03:12;;;;;;;;;;;;;;;;;;5024347;28;20011;-77
2022/10/08 04:05:38;;;;;;;;;;;;;;;;;;5031746;28;19926;-77
2022/10/08 04:08:05;;;;;;;;;;;;;;;;;;5031315;28;20020;-76
2022/10/08 04:10:31;;;;;;;;;;;;;;;;;;5031859;28;19925;-76
2022/10/08 04:12:58;;;;;;;;;;;;;;;;;;5035581;28;19972;-77
2022/10/08 04:15:24;;;;;;;;;;;;;;;;;;5035380;28;19924;-77
2022/10/08 04:17:50;;;;;;;;;;;;;;;;;;5034856;28;20021;-75
2022/10/08 04:20:18;;;;;;;;;;;;;;;;;;5035309;28;20004;-74
2022/10/08 04:22:48;;;;;;;;;;;;;;;;;;5034981;28;19929;-74
2022/10/08 04:25:14;;;;;;;;;;;;;;;;;;5034894;28;19925;-75
2022/10/08 04:27:41;;;;;;;;;;;;;;;;;;5034569;28;20346;-75
2022/10/08 04:30:08;;;;;;;;;;;;;;;;;;5034912;28;19932;-75
2022/10/08 04:32:34;;;;;;;;;;;;;;;;;;5035083;28;19932;-76
2022/10/08 04:35:01;;;;;;;;;;;;;;;;;;5034639;28;20008;-76
2022/10/08 04:37:28;;;;;;;;;;;;;;;;;;5035351;28;19968;-76
2022/10/08 04:39:55;;;;;;;;;;;;;;;;;;5034988;28;19925;-76
2022/10/08 04:42:21;;;;;;;;;;;;;;;;;;5034783;28;19925;-75
2022/10/08 04:44:48;;;;;;;;;;;;;;;;;;5035051;28;19960;-76
2022/10/08 04:47:14;;;;;;;;;;;;;;;;;;5042700;28;20400;-77
2022/10/08 04:49:41;;;;;;;;;;;;;;;;;;5035143;28;19968;-75
2022/10/08 04:52:07;;;;;;;;;;;;;;;;;;5034714;28;20008;-76
2022/10/08 04:54:35;;;;;;;;;;;;;;;;;;5034658;28;19931;-77
2022/10/08 04:57:01;;;;;;;;;;;;;;;;;;5033852;28;19929;-77
2022/10/08 04:59:28;;;;;;;;;;;;;;;;;;5034389;28;19925;-77
2022/10/08 05:01:55;;;;;;;;;;;;;;;;;;5032330;28;19975;-77
2022/10/08 05:04:22;;;;;;;;;;;;;;;;;;5014765;28;19932;-76
2022/10/08 05:06:48;;;;;;;;;;;;;;;;;;5014490;28;20089;-77
2022/10/08 05:09:14;;;;;;;;;;;;;;;;;;5014492;28;20013;-77
2022/10/08 05:11:42;;;;;;;;;;;;;;;;;;5014705;28;20020;-77
2022/10/08 05:14:09;;;;;;;;;;;;;;;;;;5014081;28;20503;-77
2022/10/08 05:16:36;;;;;;;;;;;;;;;;;;5013920;28;19926;-77
2022/10/08 05:19:04;;;;;;;;;;;;;;;;;;5013431;28;21614;-78
2022/10/08 05:21:31;;;;;;;;;;;;;;;;;;5014365;28;19967;-77
2022/10/08 05:23:59;;;;;;;;;;;;;;;;;;5012889;28;20008;-77
2022/10/08 05:26:26;;;;;;;;;;;;;;;;;;5013776;28;19926;-77
2022/10/08 05:28:55;;;;;;;;;;;;;;;;;;5013816;28;20372;-77
2022/10/08 05:31:22;;;;;;;;;;;;;;;;;;5014076;28;19929;-77
2022/10/08 05:33:49;;;;;;;;;;;;;;;;;;5014455;28;19930;-76
2022/10/08 05:36:16;;;;;;;;;;;;;;;;;;5014200;28;19926;-77
2022/10/08 05:38:43;;;;;;;;;;;;;;;;;;5012839;28;19926;-77
2022/10/08 05:41:10;;;;;;;;;;;;;;;;;;5014093;28;20001;-77
2022/10/08 05:43:37;;;;;;;;;;;;;;;;;;5013654;28;19969;-77
2022/10/08 05:46:05;;;;;;;;;;;;;;;;;;5012973;28;19964;-78
2022/10/08 05:48:31;;;;;;;;;;;;;;;;;;5014092;28;19926;-77
2022/10/08 05:51:03;;;;;;;;;;;;;;;;;;5013870;28;19932;-77
2022/10/08 05:53:29;;;;;;;;;;;;;;;;;;5013712;28;19931;-78
2022/10/08 05:55:59;;;;;;;;;;;;;;;;;;5013473;28;20368;-78
2022/10/08 05:58:25;;;;;;;;;;;;;;;;;;5012636;28;19932;-78
2022/10/08 06:00:56;;;;;;;;;;;;;;;;;;5013516;28;19932;-77
2022/10/08 06:03:24;;;;;;;;;;;;;;;;;;5027360;28;19925;-78
2022/10/08 06:05:50;;;;;;;;;;;;;;;;;;5032967;28;20003;-76
2022/10/08 06:08:16;;;;;;;;;;;;;;;;;;5032939;28;20007;-77
2022/10/08 06:10:48;;;;;;;;;;;;;;;;;;5032974;28;19925;-77
2022/10/08 06:13:14;;;;;;;;;;;;;;;;;;5033088;28;19929;-77
2022/10/08 06:15:41;;;;;;;;;;;;;;;;;;5032767;28;19925;-77
2022/10/08 06:18:07;;;;;;;;;;;;;;;;;;5032667;28;20399;-77
2022/10/08 06:20:37;;;;;;;;;;;;;;;;;;5032819;28;19925;-78
2022/10/08 06:23:03;;;;;;;;;;;;;;;;;;5032907;28;19968;-77
2022/10/08 06:25:30;;;;;;;;;;;;;;;;;;5032627;28;20310;-76
2022/10/08 06:27:56;;;;;;;;;;;;;;;;;;5032589;28;20028;-77
2022/10/08 06:30:23;;;;;;;;;;;;;;;;;;5032683;28;19926;-77
2022/10/08 06:32:49;;;;;;;;;;;;;;;;;;5032584;28;20402;-77
2022/10/08 06:35:16;;;;;;;;;;;;;;;;;;5032467;28;20371;-77
2022/10/08 06:37:47;;;;;;;;;;;;;;;;;;5032075;28;19926;-77
2022/10/08 06:40:13;;;;;;;;;;;;;;;;;;5032775;28;19929;-77
2022/10/08 06:42:40;;;;;;;;;;;;;;;;;;5032790;28;20008;-77
2022/10/08 06:45:07;;;;;;;;;;;;;;;;;;5032490;28;19931;-78
2022/10/08 06:47:33;;;;;;;;;;;;;;;;;;5032204;28;19968;-78
2022/10/08 06:50:00;;;;;;;;;;;;;;;;;;5032632;28;20020;-78
2022/10/08 06:52:26;;;;;;;;;;;;;;;;;;5032338;28;20344;-78
2022/10/08 06:54:54;;;;;;;;;;;;;;;;;;5032441;28;20008;-77
2022/10/08 06:57:21;;;;;;;;;;;;;;;;;;5031941;28;20373;-77
2022/10/08 06:59:47;;;;;;;;;;;;;;;;;;5032075;28;20555;-78
2022/10/08 07:02:13;;;;;;;;;;;;;;;;;;5028012;28;19971;-78
2022/10/08 07:04:40;;;;;;;;;;;;;;;;;;5012814;28;20016;-78
2022/10/08 07:07:06;;;;;;;;;;;;;;;;;;5012526;28;19972;-76
2022/10/08 07:09:33;;;;;;;;;;;;;;;;;;5012829;28;20008;-76
2022/10/08 07:30:38;;;;;;;;;;;;;;;;;;5010091;28;19924;-78
2022/10/08 07:39:11;;;;;;;;;;;;;;;;;;5009555;28;19948;-77
2022/10/08 07:41:38;;;;;;;;;;;;;;;;;;5012310;28;19926;-77
2022/10/08 07:44:05;;;;;;;;;;;;;;;;;;5012051;28;20020;-77
2022/10/08 07:46:33;;;;;;;;;;;;;;;;;;5013655;28;19925;-77
2022/10/08 07:49:01;;;;;;;;;;;;;;;;;;5016058;28;20016;-77
2022/10/08 07:51:28;;;;;;;;;;;;;;;;;;5015977;28;20012;-76
2022/10/08 07:53:55;;;;;;;;;;;;;;;;;;5016858;28;19948;-76
2022/10/08 07:56:22;;;;;;;;;;;;;;;;;;5015786;28;20020;-75
2022/10/08 07:58:49;;;;;;;;;;;;;;;;;;5015659;28;20398;-77
2022/10/08 08:01:17;;;;;;;;;;;;;;;;;;5016044;28;20008;-77
2022/10/08 08:03:45;;;;;;;;;;;;;;;;;;5032985;28;20371;-76
2022/10/08 08:06:12;;;;;;;;;;;;;;;;;;5035435;28;19932;-76
2022/10/08 08:08:40;;;;;;;;;;;;;;;;;;5022853;28;20011;-76
2022/10/08 08:11:07;;;;;;;;;;;;;;;;;;5026313;28;19932;-76
2022/10/08 08:13:35;;;;;;;;;;;;;;;;;;5022060;28;20004;-76
2022/10/08 08:16:02;;;;;;;;;;;;;;;;;;5024929;28;19964;-76
2022/10/08 08:18:28;;;;;;;;;;;;;;;;;;5025601;28;19932;-76
2022/10/08 08:21:19;;;;;;;;;;;;;;;;;;5023834;28;19925;-76
2022/10/08 08:23:48;;;;;;;;;;;;;;;;;;5019787;28;19925;-76
2022/10/08 08:32:20;;;;;;;;;;;;;;;;;;5012250;28;20479;-77
2022/10/08 08:34:47;;;;;;;;;;;;;;;;;;5015319;28;19926;-76
2022/10/08 08:37:13;;;;;;;;;;;;;;;;;;5015822;28;19926;-77
2022/10/08 08:39:41;;;;;;;;;;;;;;;;;;5016301;28;19980;-76
2022/10/08 08:42:16;;;;;;;;;;;;;;;;;;5023633;28;19935;-79
2022/10/08 08:44:43;;;;;;;;;;;;;;;;;;5015702;28;20005;-76
2022/10/08 08:47:13;;;;;;;;;;;;;;;;;;5014342;28;19936;-76
2022/10/08 08:49:41;;;;;;;;;;;;;;;;;;5020970;28;20008;-76
2022/10/08 08:52:08;;;;;;;;;;;;;;;;;;5023371;28;19931;-77
2022/10/08 08:54:34;;;;;;;;;;;;;;;;;;5028932;28;19925;-76
2022/10/08 09:03:14;;;;;;;;;;;;;;;;;;5027102;28;20411;-75
2022/10/08 09:05:41;;;;;;;;;;;;;;;;;;5034911;28;19935;-75
2022/10/08 09:08:12;;;;;;;;;;;;;;;;;;5025688;28;19963;-75
2022/10/08 09:11:08;;;;;;;;;;;;;;;;;;5023244;28;19970;-75
2022/10/08 09:16:38;;;;;;;;;;;;;;;;;;5016810;28;19932;-77
2022/10/08 09:19:06;;;;;;;;;;;;;;;;;;5019988;28;20292;-75
2022/10/08 09:21:34;;;;;;;;;;;;;;;;;;5023651;28;20368;-77
2022/10/08 09:24:00;;;;;;;;;;;;;;;;;;5024969;28;20048;-78
2022/10/08 09:26:30;;;;;;;;;;;;;;;;;;5023310;28;19929;-76
2022/10/08 09:28:57;;;;;;;;;;;;;;;;;;5022720;28;19925;-77
2022/10/08 09:31:25;;;;;;;;;;;;;;;;;;5028408;28;20008;-77
2022/10/08 09:34:00;;;;;;;;;;;;;;;;;;5027690;28;20455;-77
2022/10/08 09:36:33;;;;;;;;;;;;;;;;;;5022535;28;19925;-78
2022/10/08 09:39:00;;;;;;;;;;;;;;;;;;5020749;28;20373;-76
2022/10/08 09:41:28;;;;;;;;;;;;;;;;;;5033954;28;20111;-76
2022/10/08 09:44:09;;;;;;;;;;;;;;;;;;5033269;28;19929;-77
2022/10/08 09:46:36;;;;;;;;;;;;;;;;;;5040964;22;19957;-50
2022/10/08 09:49:19;;;;;;;;;;;;;;;;;;5013443;28;19925;-50
2022/10/08 09:51:48;;;;;;;;;;;;;;;;;;5013780;28;19929;-53
2022/10/08 09:54:16;;;;;;;;;;;;;;;;;;5013642;28;19929;-51
2022/10/08 09:56:51;;;;;;;;;;;;;;;;;;5013214;28;19926;-51
2022/10/08 09:59:19;;;;;;;;;;;;;;;;;;5013378;28;19925;-51
2022/10/08 10:01:46;;;;;;;;;;;;;;;;;;5013855;28;19979;-50
2022/10/08 10:04:18;;;;;;;;;;;;;;;;;;5033231;28;20012;-48
2022/10/08 10:06:48;;;;;;;;;;;;;;;;;;5033076;28;19925;-50
2022/10/08 10:09:24;;;;;;;;;;;;;;;;;;5032613;28;20296;-49
2022/10/08 10:11:54;;;;;;;;;;;;;;;;;;5032824;28;19925;-52
2022/10/08 10:14:24;;;;;;;;;;;;;;;;;;5033323;28;19925;-53
2022/10/08 10:16:54;;;;;;;;;;;;;;;;;;5032532;28;20336;-50
2022/10/08 10:19:23;;;;;;;;;;;;;;;;;;5032919;28;19925;-51
2022/10/08 10:21:54;;;;;;;;;;;;;;;;;;5032775;28;19937;-49
2022/10/08 10:24:38;;;;;;;;;;;;;;;;;;5032731;28;19948;-49
2022/10/08 10:27:08;;;;;;;;;;;;;;;;;;5032125;28;19925;-47
2022/10/08 10:29:42;;;;;;;;;;;;;;;;;;5032551;28;19932;-49
2022/10/08 10:32:10;;;;;;;;;;;;;;;;;;5022010;28;19929;-48
2022/10/08 10:34:38;;;;;;;;;;;;;;;;;;5023919;28;20443;-50
2022/10/08 10:37:10;;;;;;;;;;;;;;;;;;5022762;28;20344;-53
2022/10/08 10:39:41;;;;;;;;;;;;;;;;;;5023866;28;19985;-49
2022/10/08 10:42:13;;;;;;;;;;;;;;;;;;5021625;28;19929;-50
2022/10/08 10:44:48;;;;;;;;;;;;;;;;;;5019184;28;19930;-50
2022/10/08 10:47:15;;;;;;;;;;;;;;;;;;5026510;28;19933;-53
2022/10/08 10:49:42;;;;;;;;;;;;;;;;;;5020772;28;20382;-52
2022/10/08 10:52:21;;;;;;;;;;;;;;;;;;5018282;28;20338;-50
2022/10/08 10:54:57;;;;;;;;;;;;;;;;;;5008982;28;19929;-49
2022/10/08 10:57:30;;;;;;;;;;;;;;;;;;5032554;28;19971;-50
2022/10/08 11:00:02;;;;;;;;;;;;;;;;;;5032657;28;19933;-51
2022/10/08 11:02:30;;;;;;;;;;;;;;;;;;5026057;28;19932;-53
2022/10/08 11:05:03;;;;;;;;;;;;;;;;;;5012926;28;19957;-49
2022/10/08 11:07:40;;;;;;;;;;;;;;;;;;5012439;28;19926;-52
2022/10/08 11:10:09;;;;;;;;;;;;;;;;;;5012489;28;19925;-48
2022/10/08 11:12:42;;;;;;;;;;;;;;;;;;5012602;28;20004;-50
2022/10/08 11:15:16;;;;;;;;;;;;;;;;;;5012520;28;19926;-49
2022/10/08 11:17:54;;;;;;;;;;;;;;;;;;5012482;28;20391;-50
2022/10/08 11:20:28;;;;;;;;;;;;;;;;;;5013830;28;19925;-49
2022/10/08 11:23:01;;;;;;;;;;;;;;;;;;5017001;28;19929;-47
2022/10/08 11:25:31;;;;;;;;;;;;;;;;;;5016762;28;19933;-53
2022/10/08 11:28:02;;;;;;;;;;;;;;;;;;5016570;28;19929;-50
2022/10/08 11:30:36;;;;;;;;;;;;;;;;;;5016191;28;20346;-48
2022/10/08 11:33:04;;;;;;;;;;;;;;;;;;5016543;28;19991;-49
2022/10/08 11:35:34;;;;;;;;;;;;;;;;;;5016723;28;20233;-54
2022/10/08 11:38:05;;;;;;;;;;;;;;;;;;5016225;28;19971;-52
2022/10/08 11:40:34;;;;;;;;;;;;;;;;;;5016468;28;19929;-49
2022/10/08 11:43:04;;;;;;;;;;;;;;;;;;5016646;28;19929;-51
2022/10/08 11:45:33;;;;;;;;;;;;;;;;;;5016236;28;19929;-53
2022/10/08 11:48:00;;;;;;;;;;;;;;;;;;5015801;28;19925;-49
2022/10/08 11:50:28;;;;;;;;;;;;;;;;;;5016162;28;20297;-54
2022/10/08 11:52:57;;;;;;;;;;;;;;;;;;5016063;28;19930;-50
2022/10/08 11:55:26;;;;;;;;;;;;;;;;;;5016242;28;19925;-52
2022/10/08 11:57:55;;;;;;;;;;;;;;;;;;5015978;28;20374;-53
2022/10/08 12:00:28;;;;;;;;;;;;;;;;;;5016294;28;19925;-52
2022/10/08 12:02:55;;;;;;;;;;;;;;;;;;5026234;28;19929;-52
2022/10/08 12:05:32;;;;;;;;;;;;;;;;;;5035854;28;19948;-48
2022/10/08 12:08:01;;;;;;;;;;;;;;;;;;5035345;28;19928;-52
2022/10/08 12:10:31;;;;;;;;;;;;;;;;;;5035848;28;20392;-48
2022/10/08 12:13:12;;;;;;;;;;;;;;;;;;5035544;28;19932;-51
2022/10/08 12:16:03;;;;;;;;;;;;;;;;;;5014989;28;19925;-50
2022/10/08 12:18:31;;;;;;;;;;;;;;;;;;5035415;28;19925;-52
2022/10/08 12:21:15;;;;;;;;;;;;;;;;;;5035284;28;20394;-50
2022/10/08 12:23:42;;;;;;;;;;;;;;;;;;5035377;28;19948;-49
2022/10/08 12:26:11;;;;;;;;;;;;;;;;;;5035423;28;19959;-49
2022/10/08 12:28:49;;;;;;;;;;;;;;;;;;5029099;28;19925;-50
2022/10/08 12:31:29;;;;;;;;;;;;;;;;;;5034803;28;20302;-51
2022/10/08 12:34:01;;;;;;;;;;;;;;;;;;5035159;28;20382;-49
2022/10/08 12:36:41;;;;;;;;;;;;;;;;;;5035148;28;19925;-49
2022/10/08 12:39:10;;;;;;;;;;;;;;;;;;5034779;28;19932;-50
2022/10/08 12:41:43;;;;;;;;;;;;;;;;;;5035009;28;19929;-53
2022/10/08 12:44:19;;;;;;;;;;;;;;;;;;5034916;28;19994;-49
2022/10/08 12:46:48;;;;;;;;;;;;;;;;;;5032693;28;20333;-51
2022/10/08 12:49:18;;;;;;;;;;;;;;;;;;5017316;28;19926;-51
2022/10/08 12:51:46;;;;;;;;;;;;;;;;;;5015274;28;20330;-51
2022/10/08 12:54:18;;;;;;;;;;;;;;;;;;5014819;28;19934;-53
2022/10/08 12:56:46;;;;;;;;;;;;;;;;;;5014916;28;20355;-51
2022/10/08 12:59:13;;;;;;;;;;;;;;;;;;5014481;28;20405;-48
2022/10/08 13:01:41;;;;;;;;;;;;;;;;;;5014744;28;19938;-48
2022/10/08 13:04:17;;;;;;;;;;;;;;;;;;5014973;28;19925;-49
2022/10/08 13:06:44;;;;;;;;;;;;;;;;;;5014218;28;19931;-49
2022/10/08 13:09:18;;;;;;;;;;;;;;;;;;5014191;28;19925;-51
2022/10/08 13:11:46;;;;;;;;;;;;;;;;;;5014107;28;19925;-51
2022/10/08 13:14:22;;;;;;;;;;;;;;;;;;5014135;28;19925;-50
2022/10/08 13:16:49;;;;;;;;;;;;;;;;;;5014530;28;19930;-49
2022/10/08 13:19:17;;;;;;;;;;;;;;;;;;5014236;28;19931;-50
2022/10/08 13:21:53;;;;;;;;;;;;;;;;;;5014540;28;19988;-50
2022/10/08 13:24:30;;;;;;;;;;;;;;;;;;5014288;28;19976;-50
2022/10/08 13:26:58;;;;;;;;;;;;;;;;;;5014484;28;20399;-51
2022/10/08 13:29:30;;;;;;;;;;;;;;;;;;5013814;28;19926;-51
2022/10/08 13:31:57;;;;;;;;;;;;;;;;;;5014137;28;20341;-53
2022/10/08 13:34:26;;;;;;;;;;;;;;;;;;5014319;28;19953;-50
2022/10/08 13:36:54;;;;;;;;;;;;;;;;;;5013943;28;19930;-51
2022/10/08 13:39:22;;;;;;;;;;;;;;;;;;5013864;28;19929;-49
2022/10/08 13:41:49;;;;;;;;;;;;;;;;;;5013670;28;20313;-49
2022/10/08 13:44:17;;;;;;;;;;;;;;;;;;5013677;28;19933;-52
2022/10/08 13:46:44;;;;;;;;;;;;;;;;;;5013568;28;19925;-51
2022/10/08 13:49:19;;;;;;;;;;;;;;;;;;5013778;28;19929;-51
2022/10/08 13:51:45;;;;;;;;;;;;;;;;;;5013963;28;20024;-50
2022/10/08 13:54:12;;;;;;;;;;;;;;;;;;5014203;28;19933;-54
2022/10/08 13:56:38;;;;;;;;;;;;;;;;;;5013680;28;19976;-50
2022/10/08 13:59:05;;;;;;;;;;;;;;;;;;5013575;28;19992;-51
2022/10/08 14:01:33;;;;;;;;;;;;;;;;;;5013332;28;20020;-55
2022/10/08 14:03:59;;;;;;;;;;;;;;;;;;5032563;28;19929;-51
2022/10/08 14:06:26;;;;;;;;;;;;;;;;;;5033268;28;20341;-51
2022/10/08 14:08:53;;;;;;;;;;;;;;;;;;5032766;28;20337;-50
2022/10/08 14:11:19;;;;;;;;;;;;;;;;;;5032886;28;19925;-49
2022/10/08 14:13:46;;;;;;;;;;;;;;;;;;5032981;28;19932;-49
2022/10/08 14:16:12;;;;;;;;;;;;;;;;;;5032805;28;19976;-53
2022/10/08 14:18:40;;;;;;;;;;;;;;;;;;5032522;28;19929;-50
2022/10/08 14:21:07;;;;;;;;;;;;;;;;;;5032528;28;20349;-52
2022/10/08 14:23:34;;;;;;;;;;;;;;;;;;5032811;28;20402;-51
2022/10/08 14:26:00;;;;;;;;;;;;;;;;;;5032186;28;20335;-53
2022/10/08 14:28:27;;;;;;;;;;;;;;;;;;5032560;28;19947;-51
2022/10/08 14:30:53;;;;;;;;;;;;;;;;;;5032561;28;20275;-52
2022/10/08 14:33:20;;;;;;;;;;;;;;;;;;5032756;28;19932;-54
2022/10/08 14:35:52;;;;;;;;;;;;;;;;;;5032391;28;19965;-51
2022/10/08 14:38:19;;;;;;;;;;;;;;;;;;5032519;28;19925;-53
2022/10/08 14:40:45;;;;;;;;;;;;;;;;;;5032383;28;19925;-56
2022/10/08 14:43:12;;;;;;;;;;;;;;;;;;5031942;28;19925;-49
2022/10/08 14:45:39;;;;;;;;;;;;;;;;;;5032182;28;19932;-53
2022/10/08 14:48:05;;;;;;;;;;;;;;;;;;5031914;28;19932;-49
2022/10/08 14:50:32;;;;;;;;;;;;;;;;;;5032362;28;19925;-53
2022/10/08 14:53:00;;;;;;;;;;;;;;;;;;5032248;28;20408;-48
2022/10/08 14:55:26;;;;;;;;;;;;;;;;;;5031899;28;19926;-51
2022/10/08 14:57:53;;;;;;;;;;;;;;;;;;5031998;28;19925;-50
2022/10/08 15:00:20;;;;;;;;;;;;;;;;;;5031960;28;19925;-49
2022/10/08 15:02:46;;;;;;;;;;;;;;;;;;5032089;28;19925;-53
2022/10/08 15:05:13;;;;;;;;;;;;;;;;;;5031972;28;19933;-55
2022/10/08 15:07:39;;;;;;;;;;;;;;;;;;5032225;28;19925;-52
2022/10/08 15:10:09;;;;;;;;;;;;;;;;;;5032257;28;19925;-50
2022/10/08 15:12:35;;;;;;;;;;;;;;;;;;5032098;28;19925;-51
2022/10/08 15:15:02;;;;;;;;;;;;;;;;;;5033210;28;19941;-50
2022/10/08 15:17:29;;;;;;;;;;;;;;;;;;5032998;28;19928;-53
2022/10/08 15:19:56;;;;;;;;;;;;;;;;;;5032544;28;19929;-53
2022/10/08 15:22:23;;;;;;;;;;;;;;;;;;5032103;28;19948;-52
2022/10/08 15:24:50;;;;;;;;;;;;;;;;;;5031793;28;20028;-50
2022/10/08 15:27:18;;;;;;;;;;;;;;;;;;5031910;28;20354;-52
2022/10/08 15:29:44;;;;;;;;;;;;;;;;;;5032003;28;20381;-52
2022/10/08 15:32:11;;;;;;;;;;;;;;;;;;5031995;28;19933;-54
2022/10/08 15:34:38;;;;;;;;;;;;;;;;;;5031378;28;19937;-52
2022/10/08 15:37:06;;;;;;;;;;;;;;;;;;5031882;28;19944;-51
2022/10/08 15:39:34;;;;;;;;;;;;;;;;;;5032072;28;19925;-53
2022/10/08 15:42:00;;;;;;;;;;;;;;;;;;5031669;28;20390;-54
2022/10/08 15:44:30;;;;;;;;;;;;;;;;;;5031840;28;19926;-50
2022/10/08 15:46:57;;;;;;;;;;;;;;;;;;5031479;28;19980;-51
2022/10/08 15:49:25;;;;;;;;;;;;;;;;;;5031738;28;19968;-51
2022/10/08 15:51:52;;;;;;;;;;;;;;;;;;5031869;28;20306;-50
2022/10/08 15:54:20;;;;;;;;;;;;;;;;;;5032167;28;19929;-49
2022/10/08 15:56:46;;;;;;;;;;;;;;;;;;5029644;22;20024;-56
2022/10/08 15:59:13;;;;;;;;;;;;;;;;;;5012010;28;19925;-57
2022/10/08 16:01:41;;;;;;;;;;;;;;;;;;5011770;28;19926;-57
2022/10/08 16:04:11;;;;;;;;;;;;;;;;;;5011983;28;19930;-58
2022/10/08 16:06:37;;;;;;;;;;;;;;;;;;5012089;28;20303;-56
2022/10/08 16:09:04;;;;;;;;;;;;;;;;;;5015371;28;19926;-55
2022/10/08 16:11:31;;;;;;;;;;;;;;;;;;5015042;28;19929;-56
2022/10/08 16:13:59;;;;;;;;;;;;;;;;;;5015454;28;19926;-58
2022/10/08 16:16:25;;;;;;;;;;;;;;;;;;5015229;28;19932;-57
2022/10/08 16:18:56;;;;;;;;;;;;;;;;;;5015606;28;20385;-56
2022/10/08 16:21:23;;;;;;;;;;;;;;;;;;5015354;28;20342;-57
2022/10/08 16:23:50;;;;;;;;;;;;;;;;;;5015555;28;20283;-57
2022/10/08 16:26:19;;;;;;;;;;;;;;;;;;5015198;28;19926;-57
2022/10/08 16:28:47;;;;;;;;;;;;;;;;;;5015481;28;20016;-56
2022/10/08 16:31:13;;;;;;;;;;;;;;;;;;5015148;28;19933;-57
2022/10/08 16:33:40;;;;;;;;;;;;;;;;;;5015139;28;19929;-56
2022/10/08 16:36:08;;;;;;;;;;;;;;;;;;5014992;28;19925;-56
2022/10/08 16:38:36;;;;;;;;;;;;;;;;;;5014990;28;19926;-55
2022/10/08 16:41:13;;;;;;;;;;;;;;;;;;5014687;28;19925;-56
2022/10/08 16:43:40;;;;;;;;;;;;;;;;;;5014918;28;20057;-55
2022/10/08 16:46:13;;;;;;;;;;;;;;;;;;5014860;28;19929;-52
2022/10/08 16:48:39;;;;;;;;;;;;;;;;;;5014703;28;19925;-54
2022/10/08 16:51:06;;;;;;;;;;;;;;;;;;5014767;28;19932;-56
2022/10/08 16:53:34;;;;;;;;;;;;;;;;;;5014584;28;19925;-54
2022/10/08 16:56:01;;;;;;;;;;;;;;;;;;5014528;28;20334;-56
2022/10/08 16:58:28;;;;;;;;;;;;;;;;;;5014578;28;19999;-57
2022/10/08 17:00:54;;;;;;;;;;;;;;;;;;5014576;28;19929;-55
2022/10/08 17:03:21;;;;;;;;;;;;;;;;;;5014861;28;19929;-56
2022/10/08 17:05:48;;;;;;;;;;;;;;;;;;5014726;28;19972;-55
2022/10/08 17:08:14;;;;;;;;;;;;;;;;;;5014572;28;19933;-57
2022/10/08 17:10:42;;;;;;;;;;;;;;;;;;5014573;28;20414;-56
2022/10/08 17:13:09;;;;;;;;;;;;;;;;;;5014537;28;19925;-57
2022/10/08 17:15:35;;;;;;;;;;;;;;;;;;5014456;28;19929;-57
2022/10/08 17:18:02;;;;;;;;;;;;;;;;;;5014246;28;19933;-52
2022/10/08 17:20:28;;;;;;;;;;;;;;;;;;5014483;28;19976;-57
2022/10/08 17:22:55;;;;;;;;;;;;;;;;;;5014352;28;19983;-56
2022/10/08 17:25:21;;;;;;;;;;;;;;;;;;5014374;28;20391;-57
2022/10/08 17:27:49;;;;;;;;;;;;;;;;;;5014237;28;20418;-52
2022/10/08 17:30:16;;;;;;;;;;;;;;;;;;5014339;28;19925;-57
2022/10/08 17:32:43;;;;;;;;;;;;;;;;;;5014234;28;19926;-53
2022/10/08 17:35:09;;;;;;;;;;;;;;;;;;5014148;28;19929;-55
2022/10/08 17:37:36;;;;;;;;;;;;;;;;;;5014259;28;19926;-54